M I D A S
Marine Information and Data Acquisition System
Tripno 1216 of the Zeeleeuw from 2007-02-22 07:44:22 to 2007-02-22 15:07:47
Back to CruiseResearch ActivitiesStationsMapUnderway DataData graphs

EquipmentUnitsComment
TimeDGPSUTC
LatitudeDGPSDM.mWGS84
LongitudeDGPSDM.mWGS84
HeadingGyrodeg 
SOGDGPSknotsSpeed over ground
COGDGPSdegCourse over ground
DepthEcho soundermeters200 kHz
Missing or incorrect values are displayed as -999
Navigation data collected by the RV Zeeleeuw from 2007-02-22 07:45:23 to 2007-02-22 15:16:21
Time Latitude Longitude Heading SOG COG Depth
2007-02-22 07:46:32 51°13.617 2°56.028 117.5 4.3 296 -999
2007-02-22 07:47:31 51°13.653 2°55.915 122.8 4.9 300 -999
2007-02-22 07:48:32 51°13.698 2°55.809 132 4.5 308 -999
2007-02-22 07:49:31 51°13.755 2°55.724 148.5 4.8 325 -999
2007-02-22 07:50:32 51°13.833 2°55.652 149.6 5.7 329 -999
2007-02-22 07:51:30 51°13.868 2°55.618 157.8 0.2 315 4.8
2007-02-22 07:52:32 51°13.913 2°55.612 184.8 4.2 1 -999
2007-02-22 07:53:30 51°13.962 2°55.615 201.4 0.8 337 10.6
2007-02-22 07:54:28 51°13.967 2°55.542 294.5 4.7 301 10.2
2007-02-22 07:55:28 51°14.056 2°55.465 342.1 9.7 338 10.4
2007-02-22 07:56:28 51°14.228 2°55.328 329.1 11.5 321 10.6
2007-02-22 07:57:28 51°14.343 2°55.103 307.7 11.2 305 10.1
2007-02-22 07:58:28 51°14.489 2°54.847 325.1 13.6 318 9.2
2007-02-22 07:59:28 51°14.667 2°54.624 326.7 13.7 318 8.6
2007-02-22 08:00:28 51°14.833 2°54.368 321.7 13.8 314 8.4
2007-02-22 08:01:28 51°14.991 2°54.103 319.7 13.6 313 7.9
2007-02-22 08:02:28 51°15.15 2°53.841 322.2 13.7 316 8.3
2007-02-22 08:03:28 51°15.317 2°53.591 322.7 13.8 318 9.1
2007-02-22 08:04:28 51°15.51 2°53.405 343.4 13.4 338 9.7
2007-02-22 08:05:28 51°15.72 2°53.294 350 13.3 341 10.3
2007-02-22 08:06:28 51°15.929 2°53.182 349.8 13.3 342 10.8
2007-02-22 08:07:28 51°16.139 2°53.071 349.2 13.3 341 11.1
2007-02-22 08:08:28 51°16.348 2°52.956 348.6 13.3 341 11.2
2007-02-22 08:09:28 51°16.557 2°52.841 348.9 13.3 341 10.8
2007-02-22 08:10:28 51°16.767 2°52.73 348.8 13.2 342 8.8
2007-02-22 08:11:28 51°16.974 2°52.618 348.4 13.4 342 9
2007-02-22 08:12:28 51°17.185 2°52.507 348.1 13.3 341 8.7
2007-02-22 08:13:28 51°17.394 2°52.385 341.1 13.4 332 9.4
2007-02-22 08:14:28 51°17.551 2°52.138 306.3 13.5 299 9.6
2007-02-22 08:15:28 51°17.638 2°51.805 297.8 13.6 294 9.2
2007-02-22 08:16:28 51°17.734 2°51.475 299.3 13.7 295 8.7
2007-02-22 08:17:28 51°17.834 2°51.144 300.8 13.9 296 9.7
2007-02-22 08:18:28 51°17.935 2°50.812 301.4 13.9 297 11.1
2007-02-22 08:19:28 51°18.037 2°50.482 301.2 13.9 296 12.1
2007-02-22 08:20:28 51°18.137 2°50.152 300.4 13.8 295 12.9
2007-02-22 08:21:28 51°18.233 2°49.819 299.7 13.8 295 12.8
2007-02-22 08:22:28 51°18.331 2°49.487 300.2 13.8 296 11.1
2007-02-22 08:23:28 51°18.43 2°49.156 300.4 13.8 296 9.2
2007-02-22 08:24:28 51°18.528 2°48.82 299.2 13.9 294 9.5
2007-02-22 08:25:28 51°18.626 2°48.48 299.6 14.2 295 11.4
2007-02-22 08:26:28 51°18.724 2°48.14 299.1 14 294 13.2
2007-02-22 08:27:28 51°18.817 2°47.801 298.3 13.9 294 15.2
2007-02-22 08:28:28 51°18.908 2°47.461 298 13.9 292 17.6
2007-02-22 08:29:28 51°18.997 2°47.121 298.3 13.8 293 19.3
2007-02-22 08:30:28 51°19.085 2°46.781 297.8 13.9 292 20
2007-02-22 08:31:28 51°19.174 2°46.441 298.3 13.9 293 18.9
2007-02-22 08:32:28 51°19.265 2°46.101 297.9 13.9 293 17.6
2007-02-22 08:33:28 51°19.355 2°45.761 297.7 13.9 293 15.4
2007-02-22 08:34:28 51°19.451 2°45.421 299.4 14.1 295 11.4
2007-02-22 08:35:28 51°19.551 2°45.078 299.5 14.3 295 15.2
2007-02-22 08:36:28 51°19.647 2°44.737 299.3 13.9 295 20.8
2007-02-22 08:37:28 51°19.741 2°44.4 299.7 14 294 22.2
2007-02-22 08:38:28 51°19.836 2°44.063 299.9 13.7 294 23.1
2007-02-22 08:39:28 51°19.93 2°43.728 300.4 13.8 296 25
2007-02-22 08:40:28 51°20.025 2°43.393 298.8 13.8 294 25.1
2007-02-22 08:41:28 51°20.121 2°43.058 299.3 13.9 295 25.2
2007-02-22 08:42:28 51°20.217 2°42.721 299.4 13.9 294 23.7
2007-02-22 08:43:28 51°20.313 2°42.383 299.1 13.9 296 20.7
2007-02-22 08:44:28 51°20.41 2°42.044 299 14.1 295 17.3
2007-02-22 08:45:28 51°20.509 2°41.704 298.9 14.1 294 19.4
2007-02-22 08:46:28 51°20.605 2°41.365 299.4 14 294 23.2
2007-02-22 08:47:28 51°20.703 2°41.028 299.2 13.9 295 25.8
2007-02-22 08:48:28 51°20.747 2°40.671 278.7 13.8 276 25.4
2007-02-22 08:49:28 51°20.769 2°40.306 279 13.8 276 25.1
2007-02-22 08:50:28 51°20.793 2°39.939 279.3 13.9 275 25.1
2007-02-22 08:51:28 51°20.818 2°39.57 279 14 278 23.2
2007-02-22 08:52:28 51°20.845 2°39.201 279.4 14 277 23.6
2007-02-22 08:53:28 51°20.865 2°38.832 275.9 14 274 23.6
2007-02-22 08:54:28 51°20.879 2°38.46 276.8 14 274 23
2007-02-22 08:55:28 51°20.895 2°38.088 276.6 14 274 22.7
2007-02-22 08:56:28 51°20.911 2°37.715 277.6 14.1 276 21.7
2007-02-22 08:57:28 51°20.927 2°37.342 277.1 14 275 23.2
2007-02-22 08:58:28 51°20.941 2°36.968 276.7 14.2 272 21
2007-02-22 08:59:28 51°20.958 2°36.593 277.2 14.2 274 23
2007-02-22 09:00:28 51°20.974 2°36.218 277.6 14.1 273 23.9
2007-02-22 09:01:28 51°20.989 2°35.844 277.1 14.2 273 26.5
2007-02-22 09:02:28 51°21.005 2°35.47 276.7 14 273 29.7
2007-02-22 09:03:28 51°21.019 2°35.096 277.9 14.1 273 30
2007-02-22 09:04:28 51°21.035 2°34.721 277.2 14.2 273 29.9
2007-02-22 09:05:28 51°21.05 2°34.346 277.3 14.2 274 29.9
2007-02-22 09:06:28 51°21.067 2°33.97 277.5 14.1 274 28.8
2007-02-22 09:07:28 51°21.083 2°33.593 277 14.2 274 30.9
2007-02-22 09:08:28 51°21.099 2°33.219 276.6 14.1 276 28.9
2007-02-22 09:09:28 51°21.187 2°32.887 310.9 13.6 307 26.7
2007-02-22 09:10:28 51°21.374 2°32.715 356.9 13.1 351 21.1
2007-02-22 09:11:28 51°21.592 2°32.717 10.2 13.3 3 20.1
2007-02-22 09:12:28 51°21.815 2°32.714 8.4 13.6 358 23.9
2007-02-22 09:13:28 51°22.039 2°32.698 5.6 13.5 357 29.1
2007-02-22 09:14:28 51°22.262 2°32.676 5.8 13.1 357 29.1
2007-02-22 09:15:28 51°22.481 2°32.647 5.1 13.1 354 29.5
2007-02-22 09:16:28 51°22.689 2°32.563 340.4 13.3 330 29.6
2007-02-22 09:17:28 51°22.822 2°32.279 296.1 13.9 285 29.5
2007-02-22 09:18:28 51°22.827 2°31.909 265.8 14.2 263 29
2007-02-22 09:19:28 51°22.793 2°31.536 265.6 14.2 263 29.4
2007-02-22 09:20:28 51°22.774 2°31.155 270.2 14.3 266 26.3
2007-02-22 09:21:28 51°22.761 2°30.772 271.2 14.4 268 28.6
2007-02-22 09:22:28 51°22.747 2°30.392 270.5 14.3 267 29.6
2007-02-22 09:23:28 51°22.73 2°30.015 269.2 14.3 265 31.5
2007-02-22 09:24:28 51°22.71 2°29.638 269.1 14.2 265 31.1
2007-02-22 09:25:28 51°22.689 2°29.261 269.2 14.2 266 31.6
2007-02-22 09:26:28 51°22.667 2°28.881 269.3 14.4 265 31.9
2007-02-22 09:27:28 51°22.648 2°28.503 270.7 14.2 264 31.7
2007-02-22 09:28:28 51°22.629 2°28.124 270.9 14.3 266 33.3
2007-02-22 09:29:28 51°22.609 2°27.745 270.6 14.5 265 32.5
2007-02-22 09:30:28 51°22.591 2°27.363 271 14.4 267 32.8
2007-02-22 09:31:28 51°22.575 2°26.98 271.3 14.4 267 32.7
2007-02-22 09:32:28 51°22.558 2°26.6 271.2 14.4 266 31.5
2007-02-22 09:33:28 51°22.542 2°26.219 271.5 14.3 265 28.4
2007-02-22 09:34:28 51°22.526 2°25.838 271.2 14.3 266 24.6
2007-02-22 09:35:28 51°22.513 2°25.456 271.4 14.4 269 18
2007-02-22 09:36:28 51°22.596 2°25.115 320.6 13.7 313 25.9
2007-02-22 09:37:28 51°22.795 2°24.997 4.4 12.8 357 31.1
2007-02-22 09:38:28 51°23 2°25.044 22.8 12.4 11 31.6
2007-02-22 09:39:28 51°23.199 2°25.126 24.6 12.5 13 31.5
2007-02-22 09:40:28 51°23.394 2°25.216 25.5 12.4 19 31.7
2007-02-22 09:41:28 51°23.589 2°25.307 25.4 12.2 14 31.8
2007-02-22 09:42:28 51°23.782 2°25.406 27.1 12.4 20 31.7
2007-02-22 09:43:28 51°23.985 2°25.486 22.8 12.8 12 31.2
2007-02-22 09:44:28 51°24.19 2°25.561 21.9 12.7 14 32.6
2007-02-22 09:45:28 51°24.392 2°25.63 19.4 12.4 11 32.1
2007-02-22 09:46:28 51°24.596 2°25.686 19.2 12.6 11 32.7
2007-02-22 09:47:28 51°24.797 2°25.745 19.5 12 11 33.8
2007-02-22 09:48:28 51°24.997 2°25.803 21.2 12.4 10 32.2
2007-02-22 09:49:28 51°25.198 2°25.868 20.3 12.3 10 32.6
2007-02-22 09:50:28 51°25.399 2°25.933 20.3 12.2 15 31.5
2007-02-22 09:51:28 51°25.602 2°25.993 20 12.5 14 31.9
2007-02-22 09:52:28 51°25.806 2°26.049 17.6 12.5 9 32.9
2007-02-22 09:53:28 51°26.007 2°26.115 19.4 12.6 10 32.2
2007-02-22 09:54:28 51°26.208 2°26.17 18.7 12.2 8 29.3
2007-02-22 09:55:28 51°26.412 2°26.233 20.6 12.6 12 25.3
2007-02-22 09:56:28 51°26.616 2°26.296 21.1 12.3 13 22.8
2007-02-22 09:57:28 51°26.821 2°26.357 20.1 13.1 11 20.9
2007-02-22 09:58:28 51°27.029 2°26.431 21.8 12.5 13 22.8
2007-02-22 09:59:28 51°27.229 2°26.487 18.1 12.1 10 26.5
2007-02-22 10:00:28 51°27.427 2°26.547 19.9 12.4 14 30.1
2007-02-22 10:01:28 51°27.63 2°26.609 19.4 12.6 15 31.7
2007-02-22 10:02:28 51°27.831 2°26.678 21 12.6 12 29.4
2007-02-22 10:03:28 51°28.031 2°26.746 18.3 12.4 11 31.4
2007-02-22 10:04:28 51°28.232 2°26.812 19.7 12.3 13 32.2
2007-02-22 10:05:28 51°28.435 2°26.877 18.4 12.6 10 31.5
2007-02-22 10:06:28 51°28.636 2°26.942 17.7 12.3 11 32.8
2007-02-22 10:07:28 51°28.838 2°26.954 354.9 12.4 341 33
2007-02-22 10:08:28 51°28.972 2°26.702 295.7 13.3 287 33.1
2007-02-22 10:09:28 51°29.007 2°26.343 285.3 13.8 281 33.6
2007-02-22 10:10:28 51°29.056 2°25.984 290.3 13.7 283 30.4
2007-02-22 10:11:28 51°29.108 2°25.629 290.7 13.7 286 26.6
2007-02-22 10:12:28 51°29.165 2°25.278 291.2 13.4 285 26.5
2007-02-22 10:13:28 51°29.219 2°24.929 290.4 13.7 281 23.9
2007-02-22 10:14:28 51°29.274 2°24.575 291.9 13.9 282 24.7
2007-02-22 10:15:28 51°29.332 2°24.222 295.4 13.7 288 29.8
2007-02-22 10:16:28 51°29.395 2°23.87 295.5 13.9 285 35.4
2007-02-22 10:17:28 51°29.53 2°23.61 338.6 12.4 334 37.3
2007-02-22 10:18:28 51°29.726 2°23.605 22.1 11.7 15 37.7
2007-02-22 10:19:28 51°29.907 2°23.716 32.8 11.9 30 38.2
2007-02-22 10:20:28 51°30.083 2°23.861 33.9 11.6 24 37.3
2007-02-22 10:21:28 51°30.251 2°24.007 33.7 11.7 24 37.8
2007-02-22 10:22:28 51°30.42 2°24.162 36.1 12.1 27 38.6
2007-02-22 10:23:28 51°30.588 2°24.314 38.8 12 36 35.9
2007-02-22 10:24:28 51°30.753 2°24.486 39.7 12 35 36.9
2007-02-22 10:25:28 51°30.912 2°24.665 41.3 11.9 33 36.5
2007-02-22 10:26:28 51°31.063 2°24.856 44.9 11.7 41 37.2
2007-02-22 10:27:28 51°31.214 2°25.052 43.5 11.1 38 38
2007-02-22 10:28:28 51°31.368 2°25.243 44 11.7 39 38.5
2007-02-22 10:29:28 51°31.52 2°25.433 45.7 11.2 39 36.8
2007-02-22 10:30:28 51°31.673 2°25.62 43.1 11.7 35 36.3
2007-02-22 10:31:28 51°31.829 2°25.804 39.5 11.3 30 37.6
2007-02-22 10:32:28 51°31.987 2°25.986 43.8 11.3 39 36
2007-02-22 10:33:28 51°32.145 2°26.163 41.3 11.5 32 37.6
2007-02-22 10:34:28 51°32.301 2°26.341 41.7 11.3 31 36.8
2007-02-22 10:35:28 51°32.46 2°26.518 39.4 11.8 33 36.2
2007-02-22 10:36:28 51°32.622 2°26.687 40 11.7 28 37.1
2007-02-22 10:37:28 51°32.782 2°26.866 42 12 39 37
2007-02-22 10:38:28 51°32.944 2°27.033 38 12 26 36.2
2007-02-22 10:39:28 51°33.108 2°27.203 38.2 11.5 30 36.6
2007-02-22 10:40:28 51°33.271 2°27.365 38.1 11.6 25 35.6
2007-02-22 10:41:28 51°33.437 2°27.526 37.7 11.4 26 36.9
2007-02-22 10:42:28 51°33.598 2°27.685 39.1 11.5 29 35.5
2007-02-22 10:43:28 51°33.76 2°27.846 36.6 11.1 33 36
2007-02-22 10:44:28 51°33.923 2°28.008 39.4 11.3 30 35.7
2007-02-22 10:45:28 51°34.085 2°28.173 38.2 11.8 35 35.9
2007-02-22 10:46:28 51°34.246 2°28.332 39 11 33 33.5
2007-02-22 10:47:28 51°34.408 2°28.492 37.3 11.7 30 34.1
2007-02-22 10:48:28 51°34.565 2°28.666 39.6 11.8 36 35.5
2007-02-22 10:49:28 51°34.729 2°28.841 39.5 11.6 31 33.8
2007-02-22 10:50:28 51°34.889 2°29.004 37.5 11.1 30 34.3
2007-02-22 10:51:28 51°35.048 2°29.158 37.6 11.2 34 32.6
2007-02-22 10:52:28 51°35.207 2°29.315 37.5 11.5 30 33.9
2007-02-22 10:53:28 51°35.367 2°29.481 37 11.6 23 31.8
2007-02-22 10:54:28 51°35.529 2°29.63 33.9 11.3 29 36.5
2007-02-22 10:55:28 51°35.695 2°29.79 37 11.5 32 35.1
2007-02-22 10:56:28 51°35.86 2°29.947 35.6 11.5 30 34.6
2007-02-22 10:57:28 51°36.023 2°30.108 37.1 11.6 32 34.4
2007-02-22 10:58:28 51°36.183 2°30.277 38.4 11.4 33 32.7
2007-02-22 10:59:28 51°36.349 2°30.446 39.1 11.9 35 35.4
2007-02-22 11:00:28 51°36.512 2°30.609 34.7 11.2 33 35.1
2007-02-22 11:01:28 51°36.675 2°30.765 37.7 11.6 30 35.4
2007-02-22 11:02:28 51°36.837 2°30.933 37 11.7 31 36.3
2007-02-22 11:03:28 51°36.999 2°31.097 38.3 11.3 33 37
2007-02-22 11:04:28 51°37.158 2°31.261 38.4 11.4 35 37.9
2007-02-22 11:05:28 51°37.318 2°31.411 35.5 11.2 27 38
2007-02-22 11:06:28 51°37.478 2°31.567 38.4 11.2 36 38.8
2007-02-22 11:07:28 51°37.643 2°31.724 35.7 11.4 36 37.9
2007-02-22 11:08:28 51°37.801 2°31.888 38.9 11.4 36 38
2007-02-22 11:09:28 51°37.959 2°32.043 34 11.8 30 40
2007-02-22 11:10:28 51°38.118 2°32.207 37.3 11 33 39.7
2007-02-22 11:11:28 51°38.277 2°32.358 37.5 11.1 30 40.1
2007-02-22 11:12:28 51°38.437 2°32.514 35.6 12 31 41.1
2007-02-22 11:13:28 51°38.597 2°32.67 35 11.2 30 41.7
2007-02-22 11:14:28 51°38.76 2°32.823 33 11.6 26 41.8
2007-02-22 11:15:28 51°38.922 2°32.978 34 11.4 29 40
2007-02-22 11:16:28 51°39.084 2°33.134 34.4 11.5 26 39.7
2007-02-22 11:17:28 51°39.243 2°33.291 36.4 11.5 35 39.9
2007-02-22 11:18:28 51°39.407 2°33.455 37.5 11.1 32 40.9
2007-02-22 11:19:28 51°39.569 2°33.618 36.4 11.8 34 42.5
2007-02-22 11:20:28 51°39.731 2°33.782 37 11.5 31 43.3
2007-02-22 11:21:28 51°39.896 2°33.931 34.7 11.4 31 41.2
2007-02-22 11:22:28 51°40.062 2°34.085 32 11.3 29 37.9
2007-02-22 11:23:28 51°40.227 2°34.239 35.5 11.7 30 37
2007-02-22 11:24:28 51°40.391 2°34.392 35.7 11.6 30 37
2007-02-22 11:25:28 51°40.561 2°34.524 31.5 11.3 25 36.9
2007-02-22 11:26:28 51°40.733 2°34.654 31.4 11.3 28 37.2
2007-02-22 11:27:28 51°40.907 2°34.776 30.8 11.3 21 34.9
2007-02-22 11:28:28 51°41.081 2°34.911 30.1 12.1 23 34.7
2007-02-22 11:29:28 51°41.254 2°35.043 32.7 11.4 26 36.5
2007-02-22 11:30:28 51°41.425 2°35.178 34.2 11.7 28 34.9
2007-02-22 11:31:28 51°41.553 2°35.395 70.1 11.3 76 34.1
2007-02-22 11:32:28 51°41.525 2°35.692 112.4 12.1 118 27.9
2007-02-22 11:33:28 51°41.428 2°35.98 115.7 12.1 119 26.9
2007-02-22 11:34:28 51°41.328 2°36.261 116.3 11.9 120 21.5
2007-02-22 11:35:28 51°41.223 2°36.539 118.3 12.1 125 24.7
2007-02-22 11:36:28 51°41.125 2°36.828 115.4 12.4 117 31.6
2007-02-22 11:37:28 51°41.021 2°37.121 116.1 12.6 118 35.2
2007-02-22 11:38:28 51°40.917 2°37.412 116.1 12.6 121 36.4
2007-02-22 11:39:28 51°40.815 2°37.705 116.2 12.5 120 39.5
2007-02-22 11:40:28 51°40.713 2°37.999 114.5 12.5 117 39.1
2007-02-22 11:41:28 51°40.608 2°38.29 116.7 12.6 123 40.5
2007-02-22 11:42:28 51°40.499 2°38.578 118.3 12.7 123 39.7
2007-02-22 11:43:28 51°40.39 2°38.867 117.9 12.8 123 39.2
2007-02-22 11:44:28 51°40.281 2°39.153 117.6 12.6 120 39.7
2007-02-22 11:45:28 51°40.172 2°39.442 119 12.6 121 36.4
2007-02-22 11:46:28 51°40.063 2°39.727 118.4 12.5 122 39
2007-02-22 11:47:28 51°39.958 2°40.013 118.6 12.3 121 39.5
2007-02-22 11:48:28 51°39.853 2°40.3 118.6 12.3 118 40.4
2007-02-22 11:49:28 51°39.75 2°40.587 119 12.3 120 33.2
2007-02-22 11:50:28 51°39.643 2°40.872 118.8 12.6 120 32
2007-02-22 11:51:28 51°39.539 2°41.157 119 12.2 121 28.2
2007-02-22 11:52:28 51°39.434 2°41.438 119.3 12.3 124 19.6
2007-02-22 11:53:28 51°39.33 2°41.72 119 12.5 120 24.8
2007-02-22 11:54:28 51°39.227 2°42.005 118 12.3 123 26.3
2007-02-22 11:55:28 51°39.107 2°42.281 132.3 12.9 140 28
2007-02-22 11:56:28 51°38.898 2°42.383 179.6 13.9 185 29.5
2007-02-22 11:57:29 51°38.661 2°42.303 193.5 14.2 192 30.3
2007-02-22 11:58:28 51°38.433 2°42.225 192.9 14.3 191 31.6
2007-02-22 11:59:28 51°38.199 2°42.157 188.2 14.1 189 31.4
2007-02-22 12:00:28 51°37.962 2°42.104 187.9 14.4 187 32.2
2007-02-22 12:01:28 51°37.726 2°42.053 187.4 14.3 187 32.2
2007-02-22 12:02:29 51°37.485 2°42.004 186.9 14.4 188 33
2007-02-22 12:03:28 51°37.281 2°41.837 227.7 14.3 225 31.3
2007-02-22 12:04:29 51°37.191 2°41.487 266.7 14.2 259 22
2007-02-22 12:05:28 51°37.193 2°41.112 283.7 14.2 273 19.5
2007-02-22 12:06:28 51°37.221 2°40.737 286.3 14.2 277 19.8
2007-02-22 12:07:28 51°37.251 2°40.365 286.3 14.1 277 25.5
2007-02-22 12:08:29 51°37.286 2°39.99 287.9 13.8 278 31.3
2007-02-22 12:09:28 51°37.317 2°39.632 286.2 13.7 276 35.5
2007-02-22 12:10:28 51°37.348 2°39.268 286.4 13.7 280 38.5
2007-02-22 12:11:28 51°37.378 2°38.905 287.4 13.8 275 40.3
2007-02-22 12:12:28 51°37.407 2°38.542 285.8 13.7 277 40.1
2007-02-22 12:13:29 51°37.436 2°38.174 287.4 13.5 277 38.3
2007-02-22 12:14:28 51°37.467 2°37.82 288.1 13.6 279 37.8
2007-02-22 12:15:29 51°37.493 2°37.451 284.6 13.6 275 39.5
2007-02-22 12:16:27 51°37.513 2°37.099 283.7 13.6 274 40.1
2007-02-22 12:17:28 51°37.535 2°36.727 284.5 13.9 273 39.9
2007-02-22 12:18:28 51°37.551 2°36.36 284.2 13.8 274 38.9
2007-02-22 12:19:27 51°37.568 2°35.996 283.6 13.8 278 38
2007-02-22 12:20:28 51°37.587 2°35.621 283.2 13.9 273 36
2007-02-22 12:21:28 51°37.605 2°35.251 283.7 13.8 274 32.8
2007-02-22 12:22:29 51°37.629 2°34.875 285.1 14.1 276 26.9
2007-02-22 12:23:28 51°37.654 2°34.507 284.1 14.3 276 17.4
2007-02-22 12:24:28 51°37.665 2°34.126 270.2 14.3 262 28.2
2007-02-22 12:25:28 51°37.542 2°33.824 218.5 13.8 214 33.6
2007-02-22 12:26:28 51°37.321 2°33.74 183.1 14 186 30.7
2007-02-22 12:27:29 51°37.09 2°33.675 193.7 14.1 196 32.8
2007-02-22 12:28:29 51°36.867 2°33.564 195.9 14 197 33.7
2007-02-22 12:29:29 51°36.644 2°33.453 196.1 14.1 198 34.1
2007-02-22 12:30:28 51°36.426 2°33.342 196.6 13.9 198 34.6
2007-02-22 12:31:28 51°36.205 2°33.227 198.1 13.9 199 34.9
2007-02-22 12:32:28 51°35.983 2°33.114 197 14.1 197 35.3
2007-02-22 12:33:29 51°35.758 2°33.001 197.4 14.1 198 36.2
2007-02-22 12:34:28 51°35.54 2°32.891 197.1 13.9 198 35.7
2007-02-22 12:35:28 51°35.318 2°32.78 196.4 14 197 35.6
2007-02-22 12:36:29 51°35.093 2°32.667 197.4 13.7 198 34.7
2007-02-22 12:37:29 51°34.872 2°32.553 196.9 14 199 32.8
2007-02-22 12:38:28 51°34.657 2°32.44 197.5 13.8 197 30.6
2007-02-22 12:39:28 51°34.436 2°32.331 195.5 13.9 196 29.1
2007-02-22 12:40:29 51°34.211 2°32.224 195.2 13.8 197 27.5
2007-02-22 12:41:28 51°33.994 2°32.116 196.5 13.8 198 26.3
2007-02-22 12:42:28 51°33.772 2°32.01 195.9 14 196 28.1
2007-02-22 12:43:29 51°33.546 2°31.908 195.3 13.6 196 23
2007-02-22 12:44:29 51°33.324 2°31.81 195.3 14.1 195 27.6
2007-02-22 12:45:29 51°33.102 2°31.713 195.1 13.9 194 27.5
2007-02-22 12:46:28 51°32.885 2°31.617 195.2 13.7 194 27.7
2007-02-22 12:47:29 51°32.658 2°31.521 195 14.1 195 26.6
2007-02-22 12:48:28 51°32.437 2°31.427 195.1 14.1 195 25.6
2007-02-22 12:49:29 51°32.208 2°31.33 195.4 14 195 28.6
2007-02-22 12:50:28 51°31.985 2°31.337 167.3 13.7 166 28.2
2007-02-22 12:51:29 51°31.773 2°31.471 148.7 13.3 148 33.5
2007-02-22 12:52:29 51°31.591 2°31.671 142.3 13.1 146 35.7
2007-02-22 12:53:29 51°31.4 2°31.852 147 13.4 151 35.9
2007-02-22 12:54:29 51°31.205 2°32.025 147.9 13.2 152 35.8
2007-02-22 12:55:28 51°31.014 2°32.195 147.8 13.4 153 35.3
2007-02-22 12:56:29 51°30.817 2°32.366 149.8 13.1 152 35.1
2007-02-22 12:57:28 51°30.627 2°32.533 149.5 13.3 151 32.5
2007-02-22 12:58:29 51°30.428 2°32.705 150.6 13.3 152 27
2007-02-22 12:59:28 51°30.236 2°32.87 150 13.3 151 23.7
2007-02-22 13:00:28 51°30.044 2°33.041 150.2 13.3 151 23.2
2007-02-22 13:01:29 51°29.846 2°33.209 151.3 13.2 151 21.4
2007-02-22 13:02:28 51°29.715 2°33.461 108.7 12.4 107 18
2007-02-22 13:03:28 51°29.717 2°33.784 79.7 12.4 81 18.1
2007-02-22 13:04:28 51°29.741 2°34.098 86 10.1 92 31.1
2007-02-22 13:05:28 51°29.742 2°34.298 85 6 93 36.5
2007-02-22 13:06:28 51°29.741 2°34.426 83.8 3.9 90 37.7
2007-02-22 13:07:28 51°29.739 2°34.514 85.5 2.9 98 37.5
2007-02-22 13:08:29 51°29.733 2°34.576 86.7 2 103 37.8
2007-02-22 13:09:28 51°29.725 2°34.62 90.6 1.6 117 37.8
2007-02-22 13:10:28 51°29.717 2°34.65 95.2 1.2 130 37.7
2007-02-22 13:11:28 51°29.708 2°34.668 99.4 2.3 107 37.8
2007-02-22 13:12:29 51°29.703 2°34.845 83.4 10.3 82 37.9
2007-02-22 13:13:28 51°29.732 2°35.134 82.8 11.6 86 38.7
2007-02-22 13:14:28 51°29.75 2°35.444 85.5 11.9 88 39.2
2007-02-22 13:15:28 51°29.758 2°35.759 88.6 12 88 35.5
2007-02-22 13:16:28 51°29.76 2°36.075 90.8 11.7 93 33.5
2007-02-22 13:17:29 51°29.757 2°36.396 90.4 11.8 92 31
2007-02-22 13:18:28 51°29.754 2°36.709 90.7 12 91 29.1
2007-02-22 13:19:29 51°29.749 2°37.034 91 11.9 91 25.8
2007-02-22 13:20:28 51°29.743 2°37.346 91.9 12 93 26
2007-02-22 13:21:28 51°29.736 2°37.662 92 11.9 91 36.8
2007-02-22 13:22:28 51°29.721 2°37.972 100.8 11.8 104 37.8
2007-02-22 13:23:28 51°29.594 2°38.207 149.5 12 152 38
2007-02-22 13:24:28 51°29.395 2°38.286 175.9 12.6 175 37.6
2007-02-22 13:25:27 51°29.19 2°38.322 168.3 12.6 165 37.2
2007-02-22 13:26:29 51°28.98 2°38.412 166.2 12.6 167 37.2
2007-02-22 13:27:28 51°28.779 2°38.492 167.1 12.6 165 40.3
2007-02-22 13:28:29 51°28.573 2°38.576 167.7 12.6 165 38.3
2007-02-22 13:29:28 51°28.374 2°38.658 168.1 12.5 165 39.5
2007-02-22 13:30:28 51°28.173 2°38.741 168.3 12.6 166 37.3
2007-02-22 13:31:29 51°27.968 2°38.825 167.4 12.6 166 34.3
2007-02-22 13:32:28 51°27.769 2°38.907 168.6 12.7 164 33.6
2007-02-22 13:33:29 51°27.564 2°38.994 168.4 12.4 165 34.3
2007-02-22 13:34:28 51°27.366 2°39.077 168.5 12.5 166 35.8
2007-02-22 13:35:29 51°27.161 2°39.163 168.3 12.5 164 34.6
2007-02-22 13:36:28 51°26.963 2°39.246 168.7 12.5 165 33.8
2007-02-22 13:37:28 51°26.763 2°39.333 168.6 12.5 167 33.8
2007-02-22 13:38:28 51°26.562 2°39.418 168.3 12.5 164 36.4
2007-02-22 13:39:28 51°26.363 2°39.506 167.7 12.5 165 34.3
2007-02-22 13:40:28 51°26.163 2°39.594 168.6 12.4 163 34.2
2007-02-22 13:41:28 51°25.964 2°39.683 167.9 12.4 163 32.7
2007-02-22 13:42:28 51°25.765 2°39.773 168.4 12.4 164 32
2007-02-22 13:43:28 51°25.566 2°39.86 168.6 12.3 165 31.4
2007-02-22 13:44:28 51°25.366 2°39.947 168.8 12.4 164 30.1
2007-02-22 13:45:28 51°25.168 2°40.036 168.2 12.3 165 28.5
2007-02-22 13:46:29 51°24.967 2°40.13 168.1 12.4 163 26.7
2007-02-22 13:47:29 51°24.771 2°40.222 168.4 12.3 164 27.8
2007-02-22 13:48:28 51°24.581 2°40.32 168.2 12.1 162 27.3
2007-02-22 13:49:28 51°24.388 2°40.418 168.2 12.2 161 27
2007-02-22 13:50:29 51°24.19 2°40.51 175.1 12.2 171 28.5
2007-02-22 13:51:28 51°23.993 2°40.534 182.3 12 175 27.6
2007-02-22 13:52:28 51°23.793 2°40.558 182.5 12.1 175 29
2007-02-22 13:53:29 51°23.59 2°40.582 183.8 12 178 31.2
2007-02-22 13:54:28 51°23.394 2°40.598 183.5 12.1 177 31.1
2007-02-22 13:55:29 51°23.193 2°40.616 183.3 11.9 176 31.6
2007-02-22 13:56:29 51°22.994 2°40.634 183.9 11.9 177 31.8
2007-02-22 13:57:29 51°22.796 2°40.653 183.5 11.9 177 31.3
2007-02-22 13:58:29 51°22.598 2°40.682 180 11.9 173 31.8
2007-02-22 13:59:29 51°22.495 2°40.498 256 10.6 253 31.6
2007-02-22 14:00:29 51°22.442 2°40.219 253.2 11 246 31.2
2007-02-22 14:01:29 51°22.323 2°40.002 223.5 11 212 31.7
2007-02-22 14:02:29 51°22.146 2°40.02 163 11.9 155 30.5
2007-02-22 14:03:28 51°21.966 2°40.149 165.1 12.1 156 30
2007-02-22 14:04:29 51°21.773 2°40.26 169.8 12.2 159 30
2007-02-22 14:05:29 51°21.582 2°40.358 171.3 12.1 164 30.7
2007-02-22 14:06:29 51°21.39 2°40.441 172.3 11.9 165 27.5
2007-02-22 14:07:29 51°21.199 2°40.529 172.2 11.9 164 27.9
2007-02-22 14:08:28 51°21.01 2°40.611 172.8 11.8 166 28.5
2007-02-22 14:09:29 51°20.819 2°40.71 166.3 12 157 29.6
2007-02-22 14:10:28 51°20.647 2°40.866 155.3 12.1 146 29.2
2007-02-22 14:11:29 51°20.523 2°41.128 120.4 12.8 106 30.1
2007-02-22 14:12:29 51°20.473 2°41.466 111 13.3 105 23.2
2007-02-22 14:13:29 51°20.41 2°41.805 116.8 13.4 108 22.2
2007-02-22 14:14:29 51°20.333 2°42.139 117.9 13.4 111 22.1
2007-02-22 14:15:28 51°20.255 2°42.467 119.5 13.4 114 24.3
2007-02-22 14:16:29 51°20.17 2°42.798 120.5 13.1 112 27.6
2007-02-22 14:17:28 51°20.091 2°43.109 121.5 12.7 113 28.7
2007-02-22 14:18:29 51°20.012 2°43.425 120 12.5 111 28.9
2007-02-22 14:19:28 51°19.935 2°43.729 120.4 12.6 112 28.8
2007-02-22 14:20:28 51°19.857 2°44.04 120.7 12.6 113 27
2007-02-22 14:21:28 51°19.778 2°44.353 122.4 12.7 113 26.3
2007-02-22 14:22:29 51°19.698 2°44.67 121.7 12.7 113 24.8
2007-02-22 14:23:29 51°19.618 2°44.985 122.1 12.9 113 23.5
2007-02-22 14:24:29 51°19.538 2°45.303 121 13.2 113 14.9
2007-02-22 14:25:29 51°19.45 2°45.629 121.3 13.3 114 15.8
2007-02-22 14:26:28 51°19.367 2°45.951 121.2 13.4 114 19.6
2007-02-22 14:27:29 51°19.282 2°46.28 119.9 13.1 110 22.5
2007-02-22 14:28:28 51°19.201 2°46.589 121.2 12.7 114 24.2
2007-02-22 14:29:29 51°19.12 2°46.906 121.7 12.8 112 23.9
2007-02-22 14:30:29 51°19.037 2°47.217 123.4 12.7 114 23.1
2007-02-22 14:31:28 51°18.95 2°47.52 125.5 12.8 118 21.4
2007-02-22 14:32:29 51°18.854 2°47.828 126.5 12.8 116 20.3
2007-02-22 14:33:29 51°18.76 2°48.132 125.2 12.6 117 17.5
2007-02-22 14:34:29 51°18.662 2°48.438 125.5 12.9 117 15.4
2007-02-22 14:35:28 51°18.567 2°48.745 124.8 13.2 115 14.1
2007-02-22 14:36:29 51°18.468 2°49.061 126 13.2 116 13.5
2007-02-22 14:37:29 51°18.37 2°49.373 125.5 13.3 116 14.3
2007-02-22 14:38:29 51°18.275 2°49.682 124.7 12.8 117 16.2
2007-02-22 14:39:29 51°18.181 2°49.99 125.6 12.8 118 16.8
2007-02-22 14:40:29 51°18.09 2°50.299 125.5 12.8 116 16.5
2007-02-22 14:41:29 51°17.999 2°50.605 125.1 12.7 116 15.9
2007-02-22 14:42:28 51°17.913 2°50.907 124.3 12.4 118 14.7
2007-02-22 14:43:29 51°17.816 2°51.214 129.9 12.7 117 13.5
2007-02-22 14:44:28 51°17.717 2°51.505 128 12.7 119 12.6
2007-02-22 14:45:29 51°17.613 2°51.804 128.8 12.5 122 13
2007-02-22 14:46:29 51°17.479 2°52.048 149 12.1 139 13.4
2007-02-22 14:47:29 51°17.319 2°52.23 158.9 11.9 148 13.3
2007-02-22 14:48:29 51°17.151 2°52.388 160.4 12.1 148 12.8
2007-02-22 14:49:28 51°16.985 2°52.545 158.9 11.6 149 12.7
2007-02-22 14:50:29 51°16.815 2°52.708 159.4 11.8 149 12.7
2007-02-22 14:51:29 51°16.647 2°52.873 158.8 11.8 149 14.5
2007-02-22 14:52:29 51°16.481 2°53.048 158.3 12.1 146 14.8
2007-02-22 14:53:29 51°16.315 2°53.225 158.9 11.9 146 14.9
2007-02-22 14:54:28 51°16.153 2°53.397 160.2 11.7 148 14.8
2007-02-22 14:55:29 51°15.978 2°53.543 166.2 11.7 155 14.4
2007-02-22 14:56:29 51°15.805 2°53.667 168.1 11.4 156 14
2007-02-22 14:57:29 51°15.63 2°53.79 168.2 11.4 157 13.5
2007-02-22 14:58:29 51°15.455 2°53.91 167.7 11.6 157 13.1
2007-02-22 14:59:29 51°15.279 2°54.028 167.6 11.4 155 12.5
2007-02-22 15:00:29 51°15.103 2°54.148 167 11.7 157 11.9
2007-02-22 15:01:29 51°14.926 2°54.3 159.5 12.4 150 12.2
2007-02-22 15:02:29 51°14.756 2°54.501 153.1 13.1 141 12.5
2007-02-22 15:03:28 51°14.591 2°54.723 150.6 13.2 139 12.5
2007-02-22 15:04:28 51°14.427 2°54.96 145.1 13.5 134 13.6
2007-02-22 15:05:28 51°14.28 2°55.228 133.8 13 131 13.8
2007-02-22 15:06:29 51°14.127 2°55.424 157.1 10.1 155 14.2
2007-02-22 15:07:29 51°13.988 2°55.522 158.9 8.1 156 13.9
2007-02-22 15:08:29 51°13.872 2°55.607 158.5 7.5 156 13.9
2007-02-22 15:09:28 51°13.767 2°55.695 150.6 7.2 147 14
2007-02-22 15:10:28 51°13.689 2°55.812 127.7 5.3 125 13.4
2007-02-22 15:11:29 51°13.645 2°55.928 124.1 4.8 120 13.4
2007-02-22 15:12:29 51°13.612 2°56.021 118.4 3.5 113 12.9
2007-02-22 15:13:29 51°13.605 2°56.076 112.7 0.4 14 10.6
2007-02-22 15:14:28 51°13.604 2°56.083 125.9 0.4 124 10.1
2007-02-22 15:15:29 51°13.601 2°56.089 128 0.2 121 9.9